Songa Opal — V7RO5 — position and weather

sailwx.info

Track history (hours):
 
Tides and Currents Weather Stations Pressure Air Temp Water Temp Dewpoint Dewpoint Depression Visibility Wind Speed Wind Dir Waves Ship Positions

Songa Opal

Last reported at 2016-Aug-26 00:33 UTC. Time now 2016-Aug-27 16:56 UTC.
Position N 42°27' W 080°14'.

Length 148 m; draft 7.1 m.

Type: Ship. MMSI: 538003550.

Date/timePositionNaut miles runAvg speedWind from/ knotsBaromVisibWave heightAir tempDewpointWater temp
2016-Aug-26 00:33N 42°27' W 080°14'1211.6
2016-Aug-25 23:33N 42°33' W 080°00'1312.7
2016-Aug-25 22:33N 42°45' W 080°05'3 0.1
2016-Aug-24 09:33N 42°47' W 080°03'5 4.9
2016-Aug-24 08:33N 42°43' W 080°06'1212.4
2016-Aug-24 07:33N 42°44' W 079°49'39 3.3
2016-Aug-23 19:33N 43°13' W 079°13'12313.0
2016-Aug-23 10:07N 43°59' W 076°35'0 0.0
2016-Aug-23 09:34N 43°59' W 076°35'1514.5
2016-Aug-23 08:34N 44°08' W 076°20'1010.2
2016-Aug-23 07:34N 44°14' W 076°08'102 7.9
2016-Aug-22 18:31N 45°14' W 074°11'8 8.8
2016-Aug-22 17:33N 45°15' W 073°59'5 4.7
2016-Aug-22 16:33N 45°19' W 073°55'3 2.6
2016-Aug-22 15:33N 45°21' W 073°53'9 9.4
2016-Aug-22 14:33N 45°25' W 073°41'5 5.2
2016-Aug-22 13:33N 45°24' W 073°34'4 4.1
2016-Aug-22 12:32N 45°28' W 073°30'3 2.3
2016-Aug-22 11:23N 45°30' W 073°31'6 6.6
2016-Aug-22 10:33N 45°36' W 073°30'9 8.7
2016-Aug-22 09:33N 45°44' W 073°25'1010.2
2016-Aug-22 08:33N 45°52' W 073°16'1010.4
2016-Aug-22 07:33N 46°01' W 073°10'9 9.3
2016-Aug-22 06:33N 46°06' W 072°59'1010.1
2016-Aug-22 05:33N 46°13' W 072°48'  
Track history (hours):
 
Tides and Currents Weather Stations Pressure Air Temp Water Temp Dewpoint Dewpoint Depression Visibility Wind Speed Wind Dir Waves Ship Positions

Songa Opal

Last reported at 2016-Aug-26 00:33 UTC. Time now 2016-Aug-27 16:56 UTC.
Position N 42°27' W 080°14'.

Length 148 m; draft 7.1 m.

Type: Ship. MMSI: 538003550.

Date/timePositionNaut miles runAvg speedWind from/ knotsBaromVisibWave heightAir tempDewpointWater temp
2016-Aug-26 00:33N 42°27' W 080°14'1211.6
2016-Aug-25 23:33N 42°33' W 080°00'1312.7
2016-Aug-25 22:33N 42°45' W 080°05'3 0.1
2016-Aug-24 09:33N 42°47' W 080°03'5 4.9
2016-Aug-24 08:33N 42°43' W 080°06'1212.4
2016-Aug-24 07:33N 42°44' W 079°49'39 3.3
2016-Aug-23 19:33N 43°13' W 079°13'12313.0
2016-Aug-23 10:07N 43°59' W 076°35'0 0.0
2016-Aug-23 09:34N 43°59' W 076°35'1514.5
2016-Aug-23 08:34N 44°08' W 076°20'1010.2
2016-Aug-23 07:34N 44°14' W 076°08'102 7.9
2016-Aug-22 18:31N 45°14' W 074°11'8 8.8
2016-Aug-22 17:33N 45°15' W 073°59'5 4.7
2016-Aug-22 16:33N 45°19' W 073°55'3 2.6
2016-Aug-22 15:33N 45°21' W 073°53'9 9.4
2016-Aug-22 14:33N 45°25' W 073°41'5 5.2
2016-Aug-22 13:33N 45°24' W 073°34'4 4.1
2016-Aug-22 12:32N 45°28' W 073°30'3 2.3
2016-Aug-22 11:23N 45°30' W 073°31'6 6.6
2016-Aug-22 10:33N 45°36' W 073°30'9 8.7
2016-Aug-22 09:33N 45°44' W 073°25'1010.2
2016-Aug-22 08:33N 45°52' W 073°16'1010.4
2016-Aug-22 07:33N 46°01' W 073°10'9 9.3
2016-Aug-22 06:33N 46°06' W 072°59'1010.1
2016-Aug-22 05:33N 46°13' W 072°48'  

Dump ship's entire track history